Rocky Mount, VA (24151)

7:52 PM EDT on April 24, 2017 (GMT -0400)
Foggy Ridge Road | | Change Station

Elev 1125 ft 37.05 °N, 79.89 °W | Updated 1 second ago

Rain
Rain
52.2 °F
Feels Like 52.2 °F
N
0.0
Wind Variable Wind from East
Gusts 0.0 mph

Today
High -- | Low -- °F
--% Chance of Precip.
Yesterday
High -- | Low -- °F
Precip. -- in
Pressure 29.89 in
Visibility 6.0 miles
Clouds Few 600 ft
Overcast 1400 ft
Dew Point 46 °F
Humidity 78%
Rainfall 1.29 in
Snow Depth Not available.
6:33 AM 8:02 PM
Waning Crescent, 3% visible
METAR KROA 242254Z 02005KT 6SM RA BR FEW006 OVC014 12/11 A2989 RMK AO2 SLP121 P0004 T01170111
Pressure 29.89 in
Visibility 6.0 miles
Clouds Few 600 ft
Overcast 1400 ft
Dew Point 46 °F
Humidity 78%
Rainfall 1.29 in
Snow Depth Not available.
6:33 AM 8:02 PM
Waning Crescent, 3% visible
METAR KROA 242254Z 02005KT 6SM RA BR FEW006 OVC014 12/11 A2989 RMK AO2 SLP121 P0004 T01170111

Get Severe Weather Alerts

Thanks for signing up!

Be on the lookout for a verification email in your inbox.

You'll start receiving the daily forecast at 8 AM.

×

10-Day Weather Forecast

Almanac

Astronomy

Apr. 24, 2017 Rise Set
Actual Time
Civil Twilight
Nautical Twilight
Astronomical Twilight
Moon
Length of Visible Light
Length of Day
Tomorrow will be .
, % of the Moon is Illuminated

Today's Extremes

State Highs State Lows

Community

WunderPhotos

WunderBlog® & News

Nearby

Air Quality

  Air Quality AQ Index Pollutant
Not available.

Snow Depth

Station Depth Elevation

Earthquake Activity

City Distance Mag. Time & Date
Minimum magnitude displayed is 2.5.

Coastal Water Temperatures

Place Temperature

Stations

Nearby Weather Stations

Station Location Temp. Windchill Dew Point Humidity Wind Precip. Elev Updated Type
                   

Watches & Warnings

There are currently no watches in effect.